North Salem, Indiana
Current Conditions -  °F | °C
As of 5:27 AM on Tuesday 27 Jan 2015 (Local Time) from KEYE Reporting Station
Haze Haze  
Wind Chill: 26°   Ceiling: 1300
Heat Index: 26°   Visibility: 5mi
Dew Point: 24°   Wind: 3mph
Humidity: 92%   Direction: 40°NE
Pressure: 29.93"   Gusts: NA
Location:  39.86°N, 86.64°W
Report Text: KEYE 271027Z AUTO 04003KT 5SM BR SCT006 OVC013 M03/M04 A2993 RMK AO2 T10331044 $
Loading
Personal Weather Stations






























Interactive Weather Map New forecast layout! Learn more

10-Day Weather Forecast

Advertisements
Track Severe Weather on mobile